sensor_id;sensor_type;location;lat;lon;timestamp;P1;durP1;ratioP1;P2;durP2;ratioP2
1328;SDS011;658;48.820;9.354;2023-06-22T00:03:10;8.13;;;7.33;;
1328;SDS011;658;48.820;9.354;2023-06-22T00:07:11;7.70;;;7.00;;
1328;SDS011;658;48.820;9.354;2023-06-22T00:11:11;6.60;;;6.00;;
1328;SDS011;658;48.820;9.354;2023-06-22T00:15:12;7.60;;;6.90;;
1328;SDS011;658;48.820;9.354;2023-06-22T00:19:12;7.07;;;6.47;;
1328;SDS011;658;48.820;9.354;2023-06-22T00:23:13;7.53;;;6.97;;
1328;SDS011;658;48.820;9.354;2023-06-22T00:27:17;7.57;;;7.00;;
1328;SDS011;658;48.820;9.354;2023-06-22T00:31:17;7.90;;;7.30;;
1328;SDS011;658;48.820;9.354;2023-06-22T00:35:20;7.10;;;6.50;;
1328;SDS011;658;48.820;9.354;2023-06-22T00:39:21;7.40;;;6.80;;
1328;SDS011;658;48.820;9.354;2023-06-22T00:43:21;7.63;;;7.03;;
1328;SDS011;658;48.820;9.354;2023-06-22T00:47:22;7.60;;;7.00;;
1328;SDS011;658;48.820;9.354;2023-06-22T00:51:23;7.10;;;6.60;;
1328;SDS011;658;48.820;9.354;2023-06-22T00:55:24;8.30;;;7.47;;
1328;SDS011;658;48.820;9.354;2023-06-22T00:59:27;7.80;;;7.20;;
1328;SDS011;658;48.820;9.354;2023-06-22T01:03:28;7.60;;;7.00;;
1328;SDS011;658;48.820;9.354;2023-06-22T01:07:38;7.20;;;6.70;;
1328;SDS011;658;48.820;9.354;2023-06-22T01:11:54;7.23;;;6.63;;
1328;SDS011;658;48.820;9.354;2023-06-22T01:16:03;7.90;;;7.27;;
1328;SDS011;658;48.820;9.354;2023-06-22T01:20:09;7.67;;;7.07;;
1328;SDS011;658;48.820;9.354;2023-06-22T01:24:15;8.30;;;7.60;;
1328;SDS011;658;48.820;9.354;2023-06-22T01:28:36;7.30;;;6.80;;
1328;SDS011;658;48.820;9.354;2023-06-22T01:32:37;8.03;;;7.37;;
1328;SDS011;658;48.820;9.354;2023-06-22T01:36:39;7.30;;;6.80;;
1328;SDS011;658;48.820;9.354;2023-06-22T01:40:40;7.73;;;7.13;;
1328;SDS011;658;48.820;9.354;2023-06-22T01:44:41;8.20;;;7.43;;
1328;SDS011;658;48.820;9.354;2023-06-22T01:48:42;7.50;;;6.90;;
1328;SDS011;658;48.820;9.354;2023-06-22T01:52:43;7.90;;;7.20;;
1328;SDS011;658;48.820;9.354;2023-06-22T01:56:43;7.60;;;7.00;;
1328;SDS011;658;48.820;9.354;2023-06-22T02:00:45;7.63;;;7.10;;
1328;SDS011;658;48.820;9.354;2023-06-22T02:04:51;8.10;;;7.40;;
1328;SDS011;658;48.820;9.354;2023-06-22T02:08:57;7.60;;;7.10;;
1328;SDS011;658;48.820;9.354;2023-06-22T02:13:04;7.80;;;7.00;;
1328;SDS011;658;48.820;9.354;2023-06-22T02:17:08;7.10;;;6.50;;
1328;SDS011;658;48.820;9.354;2023-06-22T02:21:10;7.40;;;6.87;;
1328;SDS011;658;48.820;9.354;2023-06-22T02:25:10;7.17;;;6.57;;
1328;SDS011;658;48.820;9.354;2023-06-22T02:29:11;8.00;;;7.40;;
1328;SDS011;658;48.820;9.354;2023-06-22T02:33:12;6.87;;;6.27;;
1328;SDS011;658;48.820;9.354;2023-06-22T02:37:13;8.33;;;7.50;;
1328;SDS011;658;48.820;9.354;2023-06-22T02:41:16;7.20;;;6.60;;
1328;SDS011;658;48.820;9.354;2023-06-22T02:45:18;8.00;;;7.40;;
1328;SDS011;658;48.820;9.354;2023-06-22T02:49:19;7.70;;;7.10;;
1328;SDS011;658;48.820;9.354;2023-06-22T02:53:20;7.40;;;6.90;;
1328;SDS011;658;48.820;9.354;2023-06-22T02:57:20;7.50;;;6.90;;
1328;SDS011;658;48.820;9.354;2023-06-22T03:01:21;8.07;;;7.47;;
1328;SDS011;658;48.820;9.354;2023-06-22T03:05:24;7.13;;;6.63;;
1328;SDS011;658;48.820;9.354;2023-06-22T03:09:27;7.23;;;6.57;;
1328;SDS011;658;48.820;9.354;2023-06-22T03:13:28;7.73;;;7.13;;
1328;SDS011;658;48.820;9.354;2023-06-22T03:17:31;7.83;;;7.13;;
1328;SDS011;658;48.820;9.354;2023-06-22T03:21:31;7.73;;;6.90;;
1328;SDS011;658;48.820;9.354;2023-06-22T03:25:32;7.10;;;6.60;;
1328;SDS011;658;48.820;9.354;2023-06-22T03:29:33;7.60;;;7.00;;
1328;SDS011;658;48.820;9.354;2023-06-22T03:33:34;7.43;;;6.77;;
1328;SDS011;658;48.820;9.354;2023-06-22T03:37:35;7.27;;;6.67;;
1328;SDS011;658;48.820;9.354;2023-06-22T03:41:35;7.10;;;6.60;;
1328;SDS011;658;48.820;9.354;2023-06-22T03:45:36;7.20;;;6.60;;
1328;SDS011;658;48.820;9.354;2023-06-22T03:49:37;7.40;;;6.80;;
1328;SDS011;658;48.820;9.354;2023-06-22T03:53:38;7.83;;;7.13;;
1328;SDS011;658;48.820;9.354;2023-06-22T03:57:38;6.67;;;6.17;;
1328;SDS011;658;48.820;9.354;2023-06-22T04:01:39;7.30;;;6.70;;
1328;SDS011;658;48.820;9.354;2023-06-22T04:05:39;6.73;;;6.23;;
1328;SDS011;658;48.820;9.354;2023-06-22T04:09:40;7.80;;;7.10;;
1328;SDS011;658;48.820;9.354;2023-06-22T04:13:41;7.10;;;6.50;;
1328;SDS011;658;48.820;9.354;2023-06-22T04:17:44;6.77;;;6.17;;
1328;SDS011;658;48.820;9.354;2023-06-22T04:21:44;7.27;;;6.63;;
1328;SDS011;658;48.820;9.354;2023-06-22T04:25:45;7.60;;;6.73;;
1328;SDS011;658;48.820;9.354;2023-06-22T04:29:45;7.43;;;6.80;;
1328;SDS011;658;48.820;9.354;2023-06-22T04:33:48;7.50;;;6.90;;
1328;SDS011;658;48.820;9.354;2023-06-22T04:37:52;7.50;;;6.97;;
1328;SDS011;658;48.820;9.354;2023-06-22T04:41:54;7.40;;;6.63;;
1328;SDS011;658;48.820;9.354;2023-06-22T04:46:00;7.03;;;6.43;;
1328;SDS011;658;48.820;9.354;2023-06-22T04:50:03;8.03;;;7.23;;
1328;SDS011;658;48.820;9.354;2023-06-22T04:54:06;7.67;;;7.07;;
1328;SDS011;658;48.820;9.354;2023-06-22T04:58:07;8.37;;;7.63;;
1328;SDS011;658;48.820;9.354;2023-06-22T05:02:08;7.77;;;7.27;;
1328;SDS011;658;48.820;9.354;2023-06-22T05:06:09;9.23;;;8.30;;
1328;SDS011;658;48.820;9.354;2023-06-22T05:10:10;9.07;;;8.33;;
1328;SDS011;658;48.820;9.354;2023-06-22T05:14:12;9.07;;;8.37;;
1328;SDS011;658;48.820;9.354;2023-06-22T05:18:13;8.20;;;7.50;;
1328;SDS011;658;48.820;9.354;2023-06-22T05:22:14;7.17;;;6.53;;
1328;SDS011;658;48.820;9.354;2023-06-22T05:26:15;8.50;;;7.60;;
1328;SDS011;658;48.820;9.354;2023-06-22T05:30:16;7.60;;;7.00;;
1328;SDS011;658;48.820;9.354;2023-06-22T05:34:18;7.90;;;7.20;;
1328;SDS011;658;48.820;9.354;2023-06-22T05:38:19;8.80;;;7.77;;
1328;SDS011;658;48.820;9.354;2023-06-22T05:42:19;8.40;;;7.50;;
1328;SDS011;658;48.820;9.354;2023-06-22T05:46:20;7.20;;;6.60;;
1328;SDS011;658;48.820;9.354;2023-06-22T05:50:20;7.50;;;6.80;;
1328;SDS011;658;48.820;9.354;2023-06-22T05:54:21;6.60;;;6.00;;
1328;SDS011;658;48.820;9.354;2023-06-22T05:58:21;7.23;;;6.63;;
1328;SDS011;658;48.820;9.354;2023-06-22T06:02:22;8.23;;;6.00;;
1328;SDS011;658;48.820;9.354;2023-06-22T06:06:23;6.70;;;6.20;;
1328;SDS011;658;48.820;9.354;2023-06-22T06:10:28;6.73;;;6.10;;
1328;SDS011;658;48.820;9.354;2023-06-22T06:14:32;6.17;;;5.67;;
1328;SDS011;658;48.820;9.354;2023-06-22T06:18:34;6.70;;;6.00;;
1328;SDS011;658;48.820;9.354;2023-06-22T06:22:37;7.03;;;6.43;;
1328;SDS011;658;48.820;9.354;2023-06-22T06:26:37;7.00;;;6.40;;
1328;SDS011;658;48.820;9.354;2023-06-22T06:30:38;6.40;;;5.80;;
1328;SDS011;658;48.820;9.354;2023-06-22T06:34:39;5.90;;;5.50;;
1328;SDS011;658;48.820;9.354;2023-06-22T06:38:43;6.43;;;5.83;;
1328;SDS011;658;48.820;9.354;2023-06-22T06:42:44;5.87;;;5.27;;
1328;SDS011;658;48.820;9.354;2023-06-22T06:46:46;6.77;;;6.07;;
1328;SDS011;658;48.820;9.354;2023-06-22T06:50:50;6.27;;;5.80;;
1328;SDS011;658;48.820;9.354;2023-06-22T06:54:50;5.53;;;5.13;;
1328;SDS011;658;48.820;9.354;2023-06-22T06:58:52;8.00;;;6.50;;
1328;SDS011;658;48.820;9.354;2023-06-22T07:02:52;6.27;;;5.77;;
1328;SDS011;658;48.820;9.354;2023-06-22T07:06:55;5.90;;;5.40;;
1328;SDS011;658;48.820;9.354;2023-06-22T07:10:56;5.63;;;5.13;;
1328;SDS011;658;48.820;9.354;2023-06-22T07:15:07;5.67;;;5.17;;
1328;SDS011;658;48.820;9.354;2023-06-22T07:19:10;5.30;;;5.00;;
1328;SDS011;658;48.820;9.354;2023-06-22T07:23:11;5.80;;;5.30;;
1328;SDS011;658;48.820;9.354;2023-06-22T07:27:12;5.97;;;5.50;;
1328;SDS011;658;48.820;9.354;2023-06-22T07:31:12;5.20;;;4.70;;
1328;SDS011;658;48.820;9.354;2023-06-22T07:35:16;5.47;;;4.97;;
1328;SDS011;658;48.820;9.354;2023-06-22T07:39:19;4.80;;;4.50;;
1328;SDS011;658;48.820;9.354;2023-06-22T07:43:25;5.03;;;4.63;;
1328;SDS011;658;48.820;9.354;2023-06-22T07:47:30;5.20;;;4.77;;
1328;SDS011;658;48.820;9.354;2023-06-22T07:51:33;5.30;;;4.80;;
1328;SDS011;658;48.820;9.354;2023-06-22T07:55:34;5.00;;;4.60;;
1328;SDS011;658;48.820;9.354;2023-06-22T07:59:35;5.30;;;4.90;;
1328;SDS011;658;48.820;9.354;2023-06-22T08:03:36;4.53;;;4.23;;
1328;SDS011;658;48.820;9.354;2023-06-22T08:07:37;5.07;;;4.67;;
1328;SDS011;658;48.820;9.354;2023-06-22T08:11:38;4.70;;;4.30;;
1328;SDS011;658;48.820;9.354;2023-06-22T08:15:39;5.03;;;4.70;;
1328;SDS011;658;48.820;9.354;2023-06-22T08:19:39;4.87;;;4.47;;
1328;SDS011;658;48.820;9.354;2023-06-22T08:23:40;4.30;;;4.00;;
1328;SDS011;658;48.820;9.354;2023-06-22T08:27:44;5.00;;;4.70;;
1328;SDS011;658;48.820;9.354;2023-06-22T08:31:48;4.10;;;3.80;;
1328;SDS011;658;48.820;9.354;2023-06-22T08:35:48;4.33;;;3.87;;
1328;SDS011;658;48.820;9.354;2023-06-22T08:39:50;4.37;;;3.97;;
1328;SDS011;658;48.820;9.354;2023-06-22T08:43:51;4.43;;;4.13;;
1328;SDS011;658;48.820;9.354;2023-06-22T08:47:56;4.43;;;4.13;;
1328;SDS011;658;48.820;9.354;2023-06-22T08:51:56;4.13;;;3.83;;
1328;SDS011;658;48.820;9.354;2023-06-22T08:55:57;4.50;;;4.10;;
1328;SDS011;658;48.820;9.354;2023-06-22T08:59:58;4.53;;;3.70;;
1328;SDS011;658;48.820;9.354;2023-06-22T09:03:59;4.40;;;4.10;;
1328;SDS011;658;48.820;9.354;2023-06-22T09:08:00;4.73;;;4.40;;
1328;SDS011;658;48.820;9.354;2023-06-22T09:12:00;4.40;;;4.10;;
1328;SDS011;658;48.820;9.354;2023-06-22T09:16:03;4.00;;;3.80;;
1328;SDS011;658;48.820;9.354;2023-06-22T09:20:04;3.97;;;3.67;;
1328;SDS011;658;48.820;9.354;2023-06-22T09:24:05;4.03;;;3.73;;
1328;SDS011;658;48.820;9.354;2023-06-22T09:28:08;3.73;;;3.53;;
1328;SDS011;658;48.820;9.354;2023-06-22T09:32:09;4.17;;;3.87;;
1328;SDS011;658;48.820;9.354;2023-06-22T09:36:10;4.03;;;3.73;;
1328;SDS011;658;48.820;9.354;2023-06-22T09:40:10;3.80;;;3.60;;
1328;SDS011;658;48.820;9.354;2023-06-22T09:44:13;3.73;;;3.53;;
1328;SDS011;658;48.820;9.354;2023-06-22T09:48:13;4.17;;;3.87;;
1328;SDS011;658;48.820;9.354;2023-06-22T09:52:14;3.90;;;3.67;;
1328;SDS011;658;48.820;9.354;2023-06-22T09:56:15;4.17;;;3.87;;
1328;SDS011;658;48.820;9.354;2023-06-22T10:00:16;3.63;;;3.33;;
1328;SDS011;658;48.820;9.354;2023-06-22T10:04:19;3.37;;;3.17;;
1328;SDS011;658;48.820;9.354;2023-06-22T10:08:20;4.20;;;3.90;;
1328;SDS011;658;48.820;9.354;2023-06-22T10:12:20;3.67;;;3.47;;
1328;SDS011;658;48.820;9.354;2023-06-22T10:16:24;3.77;;;3.50;;
1328;SDS011;658;48.820;9.354;2023-06-22T10:20:30;3.90;;;3.60;;
1328;SDS011;658;48.820;9.354;2023-06-22T10:24:31;3.20;;;3.00;;
1328;SDS011;658;48.820;9.354;2023-06-22T10:28:32;3.20;;;3.00;;
1328;SDS011;658;48.820;9.354;2023-06-22T10:32:32;3.73;;;3.43;;
1328;SDS011;658;48.820;9.354;2023-06-22T10:36:33;3.73;;;3.43;;
1328;SDS011;658;48.820;9.354;2023-06-22T10:40:33;3.47;;;3.27;;
1328;SDS011;658;48.820;9.354;2023-06-22T10:44:36;3.10;;;2.90;;
1328;SDS011;658;48.820;9.354;2023-06-22T10:48:38;3.70;;;3.40;;
1328;SDS011;658;48.820;9.354;2023-06-22T10:52:39;3.63;;;3.43;;
1328;SDS011;658;48.820;9.354;2023-06-22T10:56:41;3.53;;;3.33;;
1328;SDS011;658;48.820;9.354;2023-06-22T11:00:45;3.20;;;3.00;;
1328;SDS011;658;48.820;9.354;2023-06-22T11:04:46;7.33;;;2.97;;
1328;SDS011;658;48.820;9.354;2023-06-22T11:08:47;3.40;;;3.10;;
1328;SDS011;658;48.820;9.354;2023-06-22T11:12:48;3.40;;;3.20;;
1328;SDS011;658;48.820;9.354;2023-06-22T11:16:48;3.57;;;3.37;;
1328;SDS011;658;48.820;9.354;2023-06-22T11:20:51;3.50;;;3.30;;
1328;SDS011;658;48.820;9.354;2023-06-22T11:24:53;3.70;;;3.50;;
1328;SDS011;658;48.820;9.354;2023-06-22T11:28:53;6.20;;;4.00;;
1328;SDS011;658;48.820;9.354;2023-06-22T11:32:54;3.43;;;3.23;;
1328;SDS011;658;48.820;9.354;2023-06-22T11:36:57;3.00;;;2.80;;
1328;SDS011;658;48.820;9.354;2023-06-22T11:41:00;3.13;;;2.93;;
1328;SDS011;658;48.820;9.354;2023-06-22T11:45:01;3.43;;;3.23;;
1328;SDS011;658;48.820;9.354;2023-06-22T11:49:04;3.60;;;3.30;;
1328;SDS011;658;48.820;9.354;2023-06-22T11:53:05;3.40;;;3.20;;
1328;SDS011;658;48.820;9.354;2023-06-22T11:57:06;3.60;;;3.40;;
1328;SDS011;658;48.820;9.354;2023-06-22T12:01:06;2.90;;;2.70;;
1328;SDS011;658;48.820;9.354;2023-06-22T12:05:07;3.13;;;2.90;;
1328;SDS011;658;48.820;9.354;2023-06-22T12:09:08;4.70;;;4.40;;
1328;SDS011;658;48.820;9.354;2023-06-22T12:13:08;3.17;;;2.87;;
1328;SDS011;658;48.820;9.354;2023-06-22T12:17:09;3.30;;;3.10;;
1328;SDS011;658;48.820;9.354;2023-06-22T12:21:12;3.63;;;3.30;;
1328;SDS011;658;48.820;9.354;2023-06-22T12:25:12;3.30;;;3.10;;
1328;SDS011;658;48.820;9.354;2023-06-22T12:29:13;3.03;;;2.83;;
1328;SDS011;658;48.820;9.354;2023-06-22T12:33:14;3.20;;;3.00;;
1328;SDS011;658;48.820;9.354;2023-06-22T12:37:17;3.17;;;2.97;;
1328;SDS011;658;48.820;9.354;2023-06-22T12:41:17;3.17;;;2.97;;
1328;SDS011;658;48.820;9.354;2023-06-22T12:45:18;3.30;;;3.10;;
1328;SDS011;658;48.820;9.354;2023-06-22T12:49:21;3.00;;;2.80;;
1328;SDS011;658;48.820;9.354;2023-06-22T12:53:21;3.40;;;3.20;;
1328;SDS011;658;48.820;9.354;2023-06-22T12:57:27;3.20;;;2.90;;
1328;SDS011;658;48.820;9.354;2023-06-22T13:01:27;3.27;;;2.97;;
1328;SDS011;658;48.820;9.354;2023-06-22T13:05:28;2.90;;;2.70;;
1328;SDS011;658;48.820;9.354;2023-06-22T13:09:30;3.00;;;2.80;;
1328;SDS011;658;48.820;9.354;2023-06-22T13:13:34;3.90;;;3.70;;
1328;SDS011;658;48.820;9.354;2023-06-22T13:17:35;3.10;;;2.90;;
1328;SDS011;658;48.820;9.354;2023-06-22T13:21:36;3.23;;;3.03;;
1328;SDS011;658;48.820;9.354;2023-06-22T13:25:39;3.30;;;3.10;;
1328;SDS011;658;48.820;9.354;2023-06-22T13:29:39;3.67;;;3.40;;
1328;SDS011;658;48.820;9.354;2023-06-22T13:33:40;3.10;;;2.90;;
1328;SDS011;658;48.820;9.354;2023-06-22T13:37:48;3.00;;;2.80;;
1328;SDS011;658;48.820;9.354;2023-06-22T13:41:49;3.20;;;3.00;;
1328;SDS011;658;48.820;9.354;2023-06-22T13:45:49;3.20;;;3.00;;
1328;SDS011;658;48.820;9.354;2023-06-22T13:49:50;3.50;;;3.20;;
1328;SDS011;658;48.820;9.354;2023-06-22T13:53:50;3.30;;;3.10;;
1328;SDS011;658;48.820;9.354;2023-06-22T13:57:51;3.03;;;2.83;;
1328;SDS011;658;48.820;9.354;2023-06-22T14:01:52;3.63;;;3.33;;
1328;SDS011;658;48.820;9.354;2023-06-22T14:05:52;4.10;;;3.07;;
1328;SDS011;658;48.820;9.354;2023-06-22T14:09:55;4.10;;;3.10;;
1328;SDS011;658;48.820;9.354;2023-06-22T14:13:56;3.30;;;3.00;;
1328;SDS011;658;48.820;9.354;2023-06-22T14:17:56;3.27;;;3.07;;
1328;SDS011;658;48.820;9.354;2023-06-22T14:21:57;3.10;;;2.90;;
1328;SDS011;658;48.820;9.354;2023-06-22T14:25:57;3.00;;;2.80;;
1328;SDS011;658;48.820;9.354;2023-06-22T14:29:58;3.10;;;2.90;;
1328;SDS011;658;48.820;9.354;2023-06-22T14:33:59;3.33;;;3.13;;
1328;SDS011;658;48.820;9.354;2023-06-22T14:38:02;3.03;;;2.83;;
1328;SDS011;658;48.820;9.354;2023-06-22T14:42:03;3.17;;;2.90;;
1328;SDS011;658;48.820;9.354;2023-06-22T14:46:04;3.20;;;3.00;;
1328;SDS011;658;48.820;9.354;2023-06-22T14:50:04;2.90;;;2.70;;
1328;SDS011;658;48.820;9.354;2023-06-22T14:54:05;3.43;;;3.23;;
1328;SDS011;658;48.820;9.354;2023-06-22T14:58:09;3.20;;;3.00;;
1328;SDS011;658;48.820;9.354;2023-06-22T15:02:10;3.40;;;3.10;;
1328;SDS011;658;48.820;9.354;2023-06-22T15:06:11;3.40;;;3.20;;
1328;SDS011;658;48.820;9.354;2023-06-22T15:10:15;3.67;;;3.47;;
1328;SDS011;658;48.820;9.354;2023-06-22T15:14:15;3.37;;;3.17;;
1328;SDS011;658;48.820;9.354;2023-06-22T15:18:21;3.40;;;3.20;;
1328;SDS011;658;48.820;9.354;2023-06-22T15:22:21;3.33;;;3.07;;
1328;SDS011;658;48.820;9.354;2023-06-22T15:26:22;3.10;;;2.90;;
1328;SDS011;658;48.820;9.354;2023-06-22T15:30:22;3.27;;;3.07;;
1328;SDS011;658;48.820;9.354;2023-06-22T15:34:23;3.00;;;2.80;;
1328;SDS011;658;48.820;9.354;2023-06-22T15:38:24;3.10;;;2.90;;
1328;SDS011;658;48.820;9.354;2023-06-22T15:42:24;3.00;;;2.80;;
1328;SDS011;658;48.820;9.354;2023-06-22T15:46:25;3.30;;;3.00;;
1328;SDS011;658;48.820;9.354;2023-06-22T15:50:25;3.20;;;3.00;;
1328;SDS011;658;48.820;9.354;2023-06-22T15:54:29;3.70;;;3.40;;
1328;SDS011;658;48.820;9.354;2023-06-22T15:58:30;3.50;;;3.20;;
1328;SDS011;658;48.820;9.354;2023-06-22T16:02:30;3.60;;;3.27;;
1328;SDS011;658;48.820;9.354;2023-06-22T16:06:31;3.30;;;3.00;;
1328;SDS011;658;48.820;9.354;2023-06-22T16:10:31;3.60;;;3.30;;
1328;SDS011;658;48.820;9.354;2023-06-22T16:14:32;3.20;;;3.00;;
1328;SDS011;658;48.820;9.354;2023-06-22T16:18:37;2.80;;;2.60;;
1328;SDS011;658;48.820;9.354;2023-06-22T16:22:40;3.00;;;2.80;;
1328;SDS011;658;48.820;9.354;2023-06-22T16:26:41;2.83;;;2.63;;
1328;SDS011;658;48.820;9.354;2023-06-22T16:30:42;3.00;;;2.80;;
1328;SDS011;658;48.820;9.354;2023-06-22T16:34:43;3.00;;;2.73;;
1328;SDS011;658;48.820;9.354;2023-06-22T16:38:45;2.90;;;2.70;;
1328;SDS011;658;48.820;9.354;2023-06-22T16:42:46;2.90;;;2.70;;
1328;SDS011;658;48.820;9.354;2023-06-22T16:46:47;3.70;;;3.00;;
1328;SDS011;658;48.820;9.354;2023-06-22T16:50:48;3.73;;;3.37;;
1328;SDS011;658;48.820;9.354;2023-06-22T16:54:49;2.93;;;2.73;;
1328;SDS011;658;48.820;9.354;2023-06-22T16:58:50;2.70;;;2.50;;
1328;SDS011;658;48.820;9.354;2023-06-22T17:02:58;3.00;;;2.80;;
1328;SDS011;658;48.820;9.354;2023-06-22T17:07:13;3.33;;;3.10;;
1328;SDS011;658;48.820;9.354;2023-06-22T17:11:16;2.50;;;2.30;;
1328;SDS011;658;48.820;9.354;2023-06-22T17:15:17;2.77;;;2.50;;
1328;SDS011;658;48.820;9.354;2023-06-22T17:19:22;4.63;;;3.20;;
1328;SDS011;658;48.820;9.354;2023-06-22T17:23:26;9.80;;;3.83;;
1328;SDS011;658;48.820;9.354;2023-06-22T17:27:27;6.13;;;3.60;;
1328;SDS011;658;48.820;9.354;2023-06-22T17:31:35;3.40;;;3.10;;
1328;SDS011;658;48.820;9.354;2023-06-22T17:35:51;4.90;;;2.87;;
1328;SDS011;658;48.820;9.354;2023-06-22T17:39:52;3.70;;;2.70;;
1328;SDS011;658;48.820;9.354;2023-06-22T17:43:58;4.53;;;2.47;;
1328;SDS011;658;48.820;9.354;2023-06-22T17:48:01;4.90;;;2.60;;
1328;SDS011;658;48.820;9.354;2023-06-22T17:52:04;2.73;;;2.50;;
1328;SDS011;658;48.820;9.354;2023-06-22T17:56:05;5.37;;;3.20;;
1328;SDS011;658;48.820;9.354;2023-06-22T18:00:06;5.17;;;3.50;;
1328;SDS011;658;48.820;9.354;2023-06-22T18:04:11;2.77;;;2.30;;
1328;SDS011;658;48.820;9.354;2023-06-22T18:08:16;4.00;;;2.50;;
1328;SDS011;658;48.820;9.354;2023-06-22T18:12:25;2.80;;;2.50;;
1328;SDS011;658;48.820;9.354;2023-06-22T18:16:29;3.40;;;3.10;;
1328;SDS011;658;48.820;9.354;2023-06-22T18:20:30;3.40;;;2.87;;
1328;SDS011;658;48.820;9.354;2023-06-22T18:24:32;2.53;;;2.33;;
1328;SDS011;658;48.820;9.354;2023-06-22T18:28:34;2.43;;;2.23;;
1328;SDS011;658;48.820;9.354;2023-06-22T18:32:38;3.47;;;2.50;;
1328;SDS011;658;48.820;9.354;2023-06-22T18:36:46;3.83;;;2.60;;
1328;SDS011;658;48.820;9.354;2023-06-22T18:40:51;2.57;;;2.10;;
1328;SDS011;658;48.820;9.354;2023-06-22T18:44:52;2.10;;;2.00;;
1328;SDS011;658;48.820;9.354;2023-06-22T18:48:55;3.60;;;1.97;;
1328;SDS011;658;48.820;9.354;2023-06-22T18:53:02;2.50;;;2.30;;
1328;SDS011;658;48.820;9.354;2023-06-22T19:01:26;1.73;;;1.63;;
1328;SDS011;658;48.820;9.354;2023-06-22T19:05:40;3.30;;;2.30;;
1328;SDS011;658;48.820;9.354;2023-06-22T19:09:42;2.07;;;1.97;;
1328;SDS011;658;48.820;9.354;2023-06-22T19:14:21;3.33;;;1.90;;
1328;SDS011;658;48.820;9.354;2023-06-22T19:18:28;1.77;;;1.67;;
1328;SDS011;658;48.820;9.354;2023-06-22T19:26:53;2.30;;;2.07;;
1328;SDS011;658;48.820;9.354;2023-06-22T19:30:58;2.30;;;2.10;;
1328;SDS011;658;48.820;9.354;2023-06-22T19:35:00;3.40;;;1.93;;
1328;SDS011;658;48.820;9.354;2023-06-22T19:39:06;2.70;;;2.00;;
1328;SDS011;658;48.820;9.354;2023-06-22T19:43:07;2.50;;;1.93;;
1328;SDS011;658;48.820;9.354;2023-06-22T19:47:07;4.87;;;2.23;;
1328;SDS011;658;48.820;9.354;2023-06-22T19:51:08;2.10;;;1.90;;
1328;SDS011;658;48.820;9.354;2023-06-22T19:55:11;3.07;;;2.50;;
1328;SDS011;658;48.820;9.354;2023-06-22T19:59:19;2.00;;;1.90;;
1328;SDS011;658;48.820;9.354;2023-06-22T20:03:26;3.43;;;1.73;;
1328;SDS011;658;48.820;9.354;2023-06-22T20:07:33;1.93;;;1.83;;
1328;SDS011;658;48.820;9.354;2023-06-22T20:11:38;3.00;;;2.10;;
1328;SDS011;658;48.820;9.354;2023-06-22T20:15:43;1.90;;;1.70;;
1328;SDS011;658;48.820;9.354;2023-06-22T20:19:52;2.17;;;1.90;;
1328;SDS011;658;48.820;9.354;2023-06-22T20:23:53;2.67;;;2.00;;
1328;SDS011;658;48.820;9.354;2023-06-22T20:27:54;2.17;;;1.87;;
1328;SDS011;658;48.820;9.354;2023-06-22T20:32:02;3.10;;;2.10;;
1328;SDS011;658;48.820;9.354;2023-06-22T20:36:06;3.43;;;2.70;;
1328;SDS011;658;48.820;9.354;2023-06-22T20:40:08;4.30;;;3.30;;
1328;SDS011;658;48.820;9.354;2023-06-22T20:44:09;6.77;;;3.47;;
1328;SDS011;658;48.820;9.354;2023-06-22T20:48:14;3.90;;;2.87;;
1328;SDS011;658;48.820;9.354;2023-06-22T20:52:16;4.37;;;3.30;;
1328;SDS011;658;48.820;9.354;2023-06-22T20:56:17;4.10;;;3.27;;
1328;SDS011;658;48.820;9.354;2023-06-22T21:00:18;5.20;;;3.43;;
1328;SDS011;658;48.820;9.354;2023-06-22T21:04:19;5.70;;;3.80;;
1328;SDS011;658;48.820;9.354;2023-06-22T21:08:22;4.80;;;3.97;;
1328;SDS011;658;48.820;9.354;2023-06-22T21:12:23;6.80;;;3.50;;
1328;SDS011;658;48.820;9.354;2023-06-22T21:16:24;4.30;;;3.60;;
1328;SDS011;658;48.820;9.354;2023-06-22T21:20:24;4.23;;;3.20;;
1328;SDS011;658;48.820;9.354;2023-06-22T21:24:25;3.37;;;2.87;;
1328;SDS011;658;48.820;9.354;2023-06-22T21:28:26;3.63;;;2.63;;
1328;SDS011;658;48.820;9.354;2023-06-22T21:32:26;3.97;;;2.70;;
1328;SDS011;658;48.820;9.354;2023-06-22T21:36:27;2.13;;;1.93;;
1328;SDS011;658;48.820;9.354;2023-06-22T21:40:28;2.63;;;2.40;;
1328;SDS011;658;48.820;9.354;2023-06-22T21:44:31;1.63;;;1.50;;
1328;SDS011;658;48.820;9.354;2023-06-22T21:48:34;1.63;;;1.53;;
1328;SDS011;658;48.820;9.354;2023-06-22T21:52:34;1.00;;;1.00;;
1328;SDS011;658;48.820;9.354;2023-06-22T21:56:41;2.80;;;1.87;;
1328;SDS011;658;48.820;9.354;2023-06-22T22:00:45;1.43;;;1.23;;
1328;SDS011;658;48.820;9.354;2023-06-22T22:04:46;1.23;;;1.13;;
1328;SDS011;658;48.820;9.354;2023-06-22T22:08:46;1.70;;;1.10;;
1328;SDS011;658;48.820;9.354;2023-06-22T22:12:47;1.17;;;1.07;;
1328;SDS011;658;48.820;9.354;2023-06-22T22:16:50;1.10;;;0.87;;
1328;SDS011;658;48.820;9.354;2023-06-22T22:20:50;1.40;;;1.30;;
1328;SDS011;658;48.820;9.354;2023-06-22T22:24:51;1.40;;;1.30;;
1328;SDS011;658;48.820;9.354;2023-06-22T22:28:54;1.13;;;1.03;;
1328;SDS011;658;48.820;9.354;2023-06-22T22:32:54;1.30;;;1.20;;
1328;SDS011;658;48.820;9.354;2023-06-22T22:36:55;1.73;;;1.13;;
1328;SDS011;658;48.820;9.354;2023-06-22T22:40:55;1.00;;;1.00;;
1328;SDS011;658;48.820;9.354;2023-06-22T22:44:56;1.30;;;1.20;;
1328;SDS011;658;48.820;9.354;2023-06-22T22:48:57;1.20;;;1.10;;
1328;SDS011;658;48.820;9.354;2023-06-22T22:52:57;1.30;;;1.20;;
1328;SDS011;658;48.820;9.354;2023-06-22T22:56:58;1.30;;;1.20;;
1328;SDS011;658;48.820;9.354;2023-06-22T23:01:01;1.40;;;1.30;;
1328;SDS011;658;48.820;9.354;2023-06-22T23:05:02;1.83;;;1.50;;
1328;SDS011;658;48.820;9.354;2023-06-22T23:09:03;1.33;;;1.23;;
1328;SDS011;658;48.820;9.354;2023-06-22T23:13:05;1.40;;;1.30;;
1328;SDS011;658;48.820;9.354;2023-06-22T23:17:05;1.43;;;1.30;;
1328;SDS011;658;48.820;9.354;2023-06-22T23:21:06;1.60;;;1.50;;
1328;SDS011;658;48.820;9.354;2023-06-22T23:25:07;0.93;;;0.93;;
1328;SDS011;658;48.820;9.354;2023-06-22T23:29:10;1.43;;;1.33;;
1328;SDS011;658;48.820;9.354;2023-06-22T23:33:10;1.30;;;1.20;;
1328;SDS011;658;48.820;9.354;2023-06-22T23:37:11;1.27;;;1.17;;
1328;SDS011;658;48.820;9.354;2023-06-22T23:41:11;1.57;;;1.40;;
1328;SDS011;658;48.820;9.354;2023-06-22T23:45:13;1.70;;;1.60;;
1328;SDS011;658;48.820;9.354;2023-06-22T23:49:20;1.40;;;1.30;;
1328;SDS011;658;48.820;9.354;2023-06-22T23:53:20;2.30;;;1.30;;
1328;SDS011;658;48.820;9.354;2023-06-22T23:57:21;1.40;;;1.30;;
